Terminal Aerodrome Forecast
Issued by NWS

Home | Current Version | Previous Version | Text Only | Print | Product List | Glossary Off
Versions: 1 2 3 4 5 6 7 8 9 10 11 12 13 14 15 16 17 18 19 20 21 22 23 24

000
FTUS43 KGRB 090520
TAFCWA
TAF
KCWA 090520Z 0906/1006 33009G17KT P6SM -SN BKN035
      TEMPO 0906/0908 4SM -SN BKN022
     FM091400 33010G18KT P6SM BKN025
     FM091800 32009G16KT P6SM SCT035
     FM092200 29007KT P6SM BKN100
      AMD LTD TO CLD VIS AND WIND TIL 091200=

USA.gov is the U.S. government's official web portal to all federal, state and local government web resources and services.